createdAt,value
2022-11-26T00:00:15.109Z,16.34
2022-11-26T00:00:36.741Z,16.24
2022-11-26T00:00:58.312Z,16.31
2022-11-26T00:01:21.599Z,16.29
2022-11-26T00:01:44.803Z,16.30
2022-11-26T00:02:16.540Z,16.31
2022-11-26T00:02:38.329Z,16.31
2022-11-26T00:03:01.504Z,16.35
2022-11-26T00:03:24.338Z,16.32
2022-11-26T00:03:46.604Z,16.36
2022-11-26T00:04:08.311Z,16.35
2022-11-26T00:04:29.864Z,16.37
2022-11-26T00:04:54.472Z,16.37
2022-11-26T00:05:16.659Z,16.37
2022-11-26T00:05:39.847Z,16.34
2022-11-26T00:06:03.048Z,16.36
2022-11-26T00:06:32.714Z,16.31
2022-11-26T00:06:54.352Z,16.30
2022-11-26T00:07:18.480Z,16.27
2022-11-26T00:07:42.028Z,16.32
2022-11-26T00:08:05.065Z,16.32
2022-11-26T00:08:30.760Z,16.28
2022-11-26T00:08:52.868Z,16.27
2022-11-26T00:09:22.756Z,16.26
2022-11-26T00:09:44.581Z,16.25
2022-11-26T00:10:16.653Z,16.24
2022-11-26T00:10:39.318Z,16.18
2022-11-26T00:11:01.913Z,16.15
2022-11-26T00:11:23.693Z,16.19
2022-11-26T00:11:46.304Z,16.17
2022-11-26T00:12:16.409Z,16.20
2022-11-26T00:12:37.998Z,16.22
2022-11-26T00:13:00.582Z,16.22
2022-11-26T00:13:24.393Z,16.18
2022-11-26T00:13:46.067Z,16.16
2022-11-26T00:14:13.419Z,16.22
2022-11-26T00:14:36.772Z,16.16
2022-11-26T00:15:01.424Z,16.22
2022-11-26T00:15:25.219Z,16.27
2022-11-26T00:15:48.857Z,16.27
2022-11-26T00:16:14.950Z,16.29
2022-11-26T00:16:36.901Z,16.26
2022-11-26T00:16:58.622Z,16.26
2022-11-26T00:17:21.507Z,16.24
2022-11-26T00:17:43.172Z,16.24
2022-11-26T00:18:07.140Z,16.26
2022-11-26T00:18:28.739Z,16.25
2022-11-26T00:18:50.384Z,16.23
2022-11-26T00:19:12.050Z,16.22
2022-11-26T00:19:34.621Z,16.20
2022-11-26T00:19:57.636Z,16.20
2022-11-26T00:20:22.704Z,16.20
2022-11-26T00:20:46.657Z,16.20
2022-11-26T00:21:16.644Z,16.07
2022-11-26T00:21:40.488Z,16.17
2022-11-26T00:22:03.278Z,16.08
2022-11-26T00:22:30.524Z,16.20
2022-11-26T00:22:54.567Z,16.21
2022-11-26T00:23:21.698Z,16.21
2022-11-26T00:23:46.634Z,16.22
2022-11-26T00:24:26.623Z,16.15
2022-11-26T00:24:50.196Z,16.19
2022-11-26T00:25:18.002Z,16.02
2022-11-26T00:25:42.511Z,16.02
2022-11-26T00:26:04.900Z,15.95
2022-11-26T00:26:27.568Z,16.06
2022-11-26T00:26:49.311Z,16.06
2022-11-26T00:27:11.850Z,16.02
2022-11-26T00:27:33.569Z,15.97
2022-11-26T00:27:58.750Z,16.06
2022-11-26T00:28:27.036Z,16.06
2022-11-26T00:28:51.516Z,16.10
2022-11-26T00:29:13.089Z,16.10
2022-11-26T00:29:34.671Z,16.10
2022-11-26T00:29:57.271Z,16.09
2022-11-26T00:30:21.657Z,16.11
2022-11-26T00:30:43.290Z,16.14
2022-11-26T00:31:08.458Z,16.14
2022-11-26T00:31:30.150Z,16.11
2022-11-26T00:31:51.848Z,16.16
2022-11-26T00:32:16.801Z,16.14
2022-11-26T00:32:39.334Z,16.15
2022-11-26T00:33:00.984Z,16.14
2022-11-26T00:33:24.359Z,16.18
2022-11-26T00:33:46.103Z,16.13
2022-11-26T00:34:08.722Z,16.15
2022-11-26T00:34:30.305Z,16.13
2022-11-26T00:34:52.596Z,16.12
2022-11-26T00:35:15.068Z,16.07
2022-11-26T00:35:37.641Z,16.06
2022-11-26T00:36:03.785Z,16.05
2022-11-26T00:36:29.808Z,16.02
2022-11-26T00:36:51.524Z,16.07
2022-11-26T00:37:21.729Z,16.05
2022-11-26T00:37:46.022Z,16.07
2022-11-26T00:38:15.862Z,16.09
2022-11-26T00:38:38.452Z,16.10
2022-11-26T00:39:02.793Z,16.09
2022-11-26T00:39:24.647Z,16.06
2022-11-26T00:39:46.960Z,16.04
2022-11-26T00:40:16.552Z,15.99
2022-11-26T00:40:38.205Z,16.04
2022-11-26T00:40:59.896Z,16.02
2022-11-26T00:41:25.894Z,16.03
2022-11-26T00:41:50.566Z,16.02
2022-11-26T00:42:12.743Z,16.04
2022-11-26T00:42:34.342Z,16.03
2022-11-26T00:43:01.672Z,16.05
2022-11-26T00:43:23.790Z,16.04
2022-11-26T00:43:45.973Z,16.06
2022-11-26T00:44:18.131Z,16.08
2022-11-26T00:44:40.143Z,16.09
2022-11-26T00:45:01.951Z,16.08
2022-11-26T00:45:27.116Z,16.06
2022-11-26T00:45:50.448Z,16.06
2022-11-26T00:56:45.715Z,15.74
2022-11-26T00:57:10.387Z,15.74
2022-11-26T00:57:32.040Z,15.68
2022-11-26T00:57:53.998Z,15.81
2022-11-26T00:58:24.059Z,15.84
2022-11-26T00:58:46.456Z,15.85
2022-11-26T00:59:12.324Z,15.84
2022-11-26T00:59:33.962Z,15.68
2022-11-26T00:59:56.584Z,15.85
2022-11-26T01:00:21.107Z,15.78
2022-11-26T01:00:42.757Z,15.80
2022-11-26T01:01:04.477Z,15.80
2022-11-26T01:01:28.764Z,15.78
2022-11-26T01:01:50.778Z,15.77
2022-11-26T01:02:12.434Z,15.75
2022-11-26T01:02:34.168Z,15.82
2022-11-26T01:02:57.280Z,15.87
2022-11-26T01:03:19.301Z,15.85
2022-11-26T01:03:42.892Z,15.88
2022-11-26T01:04:04.777Z,15.88
2022-11-26T01:04:27.351Z,15.87
2022-11-26T01:04:48.916Z,15.89
2022-11-26T01:05:10.884Z,15.88
2022-11-26T01:05:33.551Z,15.88
2022-11-26T01:05:59.871Z,15.88
2022-11-26T01:06:24.114Z,15.87
2022-11-26T01:06:46.284Z,15.74
2022-11-26T01:07:10.089Z,15.90
2022-11-26T01:07:32.904Z,15.90
2022-11-26T01:07:56.833Z,15.94
2022-11-26T01:08:28.439Z,15.92
2022-11-26T01:08:51.588Z,15.93
2022-11-26T01:09:17.486Z,15.95
2022-11-26T01:09:39.478Z,15.87
2022-11-26T01:10:01.091Z,15.96
2022-11-26T01:10:26.231Z,15.96
2022-11-26T01:10:50.189Z,15.96
2022-11-26T01:11:14.440Z,15.93
2022-11-26T01:11:36.074Z,15.98
2022-11-26T01:11:59.965Z,16.00
2022-11-26T01:12:21.547Z,16.02
2022-11-26T01:12:43.243Z,16.02
2022-11-26T01:13:06.256Z,16.02
2022-11-26T01:13:29.404Z,16.02
2022-11-26T01:13:53.466Z,16.02
2022-11-26T01:14:17.238Z,16.02
2022-11-26T01:14:39.150Z,16.01
2022-11-26T01:15:01.941Z,15.97
2022-11-26T01:15:26.797Z,16.02
2022-11-26T01:15:48.469Z,15.95
2022-11-26T01:16:20.161Z,15.97
2022-11-26T01:16:45.102Z,15.96
2022-11-26T01:17:11.270Z,15.96
2022-11-26T01:17:32.907Z,15.86
2022-11-26T01:17:55.079Z,15.92
2022-11-26T01:18:19.818Z,15.98
2022-11-26T01:18:41.636Z,16.01
2022-11-26T01:19:03.473Z,16.00
2022-11-26T01:19:25.066Z,15.99
2022-11-26T01:19:47.617Z,16.02
2022-11-26T01:20:25.303Z,15.94
2022-11-26T01:20:49.235Z,15.98
2022-11-26T01:21:11.621Z,15.99
2022-11-26T01:21:33.420Z,15.93
2022-11-26T01:21:55.063Z,16.00
2022-11-26T01:22:21.011Z,16.02
2022-11-26T01:22:43.601Z,16.00
2022-11-26T01:23:05.254Z,15.91
2022-11-26T01:23:26.825Z,15.99
2022-11-26T01:23:49.150Z,16.06
2022-11-26T01:24:11.840Z,16.04
2022-11-26T01:24:33.475Z,16.04
2022-11-26T01:24:55.123Z,16.02
2022-11-26T01:25:18.145Z,16.01
2022-11-26T01:25:41.355Z,15.95
2022-11-26T01:26:06.429Z,15.96
2022-11-26T01:26:33.636Z,15.96
2022-11-26T01:26:55.321Z,15.97
2022-11-26T01:27:20.949Z,15.94
2022-11-26T01:27:42.632Z,15.94
2022-11-26T01:28:04.931Z,15.99
2022-11-26T01:28:26.515Z,15.96
2022-11-26T01:28:48.449Z,16.02
2022-11-26T01:29:16.214Z,16.02
2022-11-26T01:29:37.841Z,16.04
2022-11-26T01:29:59.420Z,15.99
2022-11-26T01:30:23.511Z,16.02
2022-11-26T01:30:47.194Z,16.08
2022-11-26T01:31:15.137Z,16.08
2022-11-26T01:31:36.870Z,16.03
2022-11-26T01:31:58.642Z,15.98
2022-11-26T01:32:24.150Z,16.06
2022-11-26T01:32:50.242Z,16.03
2022-11-26T01:33:11.922Z,16.05
2022-11-26T01:33:34.572Z,16.06
2022-11-26T01:33:57.209Z,16.07
2022-11-26T01:56:38.237Z,15.54
2022-11-26T01:57:09.136Z,15.42
2022-11-26T01:57:32.081Z,15.47
2022-11-26T01:57:54.090Z,15.49
2022-11-26T01:58:20.957Z,15.54
2022-11-26T01:58:46.651Z,15.46
2022-11-26T01:59:12.700Z,15.59
2022-11-26T01:59:38.042Z,15.61
2022-11-26T02:00:02.191Z,15.64
2022-11-26T02:00:33.952Z,15.69
2022-11-26T02:00:56.099Z,15.69
2022-11-26T02:01:19.037Z,15.71
2022-11-26T02:01:41.810Z,15.69
2022-11-26T02:02:04.579Z,15.71
2022-11-26T02:02:28.748Z,15.71
2022-11-26T02:02:50.409Z,15.72
2022-11-26T02:03:12.485Z,15.69
2022-11-26T02:03:41.778Z,15.68
2022-11-26T02:04:13.702Z,15.69
2022-11-26T02:04:40.414Z,15.71
2022-11-26T02:05:07.908Z,15.69
2022-11-26T02:05:34.381Z,15.69
2022-11-26T02:06:02.250Z,15.67
2022-11-26T02:06:31.419Z,15.68
2022-11-26T02:06:55.544Z,15.65
2022-11-26T02:07:17.181Z,15.66
2022-11-26T02:07:39.315Z,15.67
2022-11-26T02:08:02.148Z,15.64
2022-11-26T02:08:27.085Z,15.61
2022-11-26T02:08:48.951Z,15.57
2022-11-26T02:09:13.660Z,15.57
2022-11-26T02:09:36.555Z,15.38
2022-11-26T02:09:58.212Z,15.47
2022-11-26T02:10:19.985Z,15.59
2022-11-26T02:10:41.593Z,15.58
2022-11-26T02:11:16.140Z,15.54
2022-11-26T02:11:38.157Z,15.56
2022-11-26T02:12:02.509Z,15.58
2022-11-26T02:12:24.139Z,15.58
2022-11-26T02:12:45.969Z,15.59
2022-11-26T02:13:07.670Z,15.59
2022-11-26T02:13:29.374Z,15.59
2022-11-26T02:13:52.982Z,15.53
2022-11-26T02:14:18.941Z,15.58
2022-11-26T02:14:43.566Z,15.61
2022-11-26T02:15:06.090Z,15.58
2022-11-26T02:15:32.335Z,15.58
2022-11-26T02:16:01.168Z,15.55
2022-11-26T02:16:36.182Z,15.50
2022-11-26T02:17:11.564Z,15.49
2022-11-26T02:17:38.384Z,15.51
2022-11-26T02:18:05.834Z,15.54
2022-11-26T02:18:33.167Z,15.47
2022-11-26T02:19:10.375Z,15.55
2022-11-26T02:20:09.950Z,15.57
2022-11-26T02:20:48.952Z,15.56
2022-11-26T02:21:17.566Z,15.57
2022-11-26T02:21:48.815Z,15.47
2022-11-26T02:22:23.556Z,15.42
2022-11-26T02:23:12.826Z,15.43
2022-11-26T02:23:59.241Z,15.44
2022-11-26T02:24:42.938Z,15.37
2022-11-26T02:25:17.161Z,15.37
2022-11-26T02:26:14.620Z,15.35
2022-11-26T02:27:01.859Z,15.27
2022-11-26T02:28:08.595Z,15.30
2022-11-26T02:28:48.219Z,15.31
2022-11-26T02:29:23.705Z,15.20
2022-11-26T02:30:05.108Z,15.30
2022-11-26T02:30:29.998Z,15.31
2022-11-26T02:30:58.852Z,15.27
2022-11-26T02:31:27.004Z,15.35
2022-11-26T02:31:55.954Z,15.33
2022-11-26T02:32:23.533Z,15.34
2022-11-26T02:32:55.784Z,15.29
2022-11-26T02:33:27.074Z,15.28
2022-11-26T02:33:53.571Z,15.30
2022-11-26T02:34:22.642Z,15.27
2022-11-26T02:34:51.420Z,15.29
2022-11-26T02:35:19.684Z,15.28
2022-11-26T02:35:44.615Z,15.26
2022-11-26T02:36:12.121Z,15.32
2022-11-26T02:36:38.413Z,15.31
2022-11-26T02:37:03.911Z,15.31
2022-11-26T02:37:30.440Z,15.26
2022-11-26T02:37:55.852Z,15.30
2022-11-26T02:38:22.737Z,15.13
2022-11-26T02:38:45.530Z,15.26
2022-11-26T02:39:14.160Z,15.24
2022-11-26T02:39:36.227Z,15.22
2022-11-26T02:39:58.269Z,15.18
2022-11-26T02:40:22.710Z,15.24
2022-11-26T02:40:44.576Z,15.19
2022-11-26T02:41:06.144Z,15.17
2022-11-26T02:41:33.859Z,15.16
2022-11-26T02:41:58.850Z,15.15
2022-11-26T02:42:24.486Z,15.12
2022-11-26T02:42:46.141Z,15.11
2022-11-26T02:43:07.736Z,15.07
2022-11-26T02:43:33.515Z,15.08
2022-11-26T02:43:56.384Z,15.04
2022-11-26T02:44:23.031Z,15.08
2022-11-26T02:44:46.906Z,14.98
2022-11-26T02:45:14.455Z,15.10
2022-11-26T02:45:40.940Z,15.05
2022-11-26T02:46:08.525Z,15.08
2022-11-26T02:46:31.485Z,15.09
2022-11-26T02:46:57.122Z,15.10
2022-11-26T02:47:21.182Z,15.10
2022-11-26T02:47:48.233Z,15.12
2022-11-26T02:48:14.769Z,15.13
2022-11-26T02:48:42.030Z,15.16
2022-11-26T02:49:04.293Z,15.13
2022-11-26T02:49:29.258Z,15.18
2022-11-26T02:49:53.254Z,15.14
2022-11-26T02:50:19.678Z,15.10
2022-11-26T02:50:46.932Z,15.11
2022-11-26T02:51:12.825Z,15.06
2022-11-26T02:51:35.116Z,15.08
2022-11-26T02:52:00.020Z,15.09
2022-11-26T02:52:22.760Z,15.05
2022-11-26T02:52:46.335Z,14.86
2022-11-26T02:53:10.632Z,14.96
2022-11-26T02:53:37.008Z,14.95
2022-11-26T02:54:00.416Z,14.93
2022-11-26T02:54:25.715Z,14.90
2022-11-26T02:54:49.516Z,14.89
2022-11-26T02:55:13.368Z,14.88
2022-11-26T02:55:38.380Z,14.83
2022-11-26T02:56:04.469Z,14.90
2022-11-26T02:56:27.747Z,14.89
2022-11-26T02:56:50.549Z,14.89
2022-11-26T02:57:15.937Z,14.88
2022-11-26T02:57:45.103Z,14.89
2022-11-26T02:58:07.172Z,14.90
2022-11-26T02:58:29.746Z,14.90
2022-11-26T02:58:53.146Z,14.81
2022-11-26T02:59:16.287Z,14.88
2022-11-26T02:59:38.994Z,14.83
2022-11-26T03:00:00.804Z,14.86
2022-11-26T03:00:24.606Z,14.80
2022-11-26T03:00:49.433Z,14.72
2022-11-26T03:01:15.573Z,14.84
2022-11-26T03:01:40.415Z,14.82
2022-11-26T03:02:08.434Z,14.83
2022-11-26T03:02:35.810Z,14.81
2022-11-26T03:03:02.420Z,14.79
2022-11-26T03:03:27.547Z,14.80
2022-11-26T03:03:52.971Z,14.81
2022-11-26T03:04:20.409Z,14.80
2022-11-26T03:04:46.338Z,14.80
2022-11-26T03:05:09.440Z,14.76
2022-11-26T03:05:35.713Z,14.74
2022-11-26T03:06:01.928Z,14.73
2022-11-26T03:06:25.623Z,14.75
2022-11-26T03:06:47.923Z,14.69
2022-11-26T03:07:12.967Z,14.60
2022-11-26T03:07:36.567Z,14.67
2022-11-26T03:07:59.232Z,14.65
2022-11-26T03:08:22.539Z,14.55
2022-11-26T03:08:45.089Z,14.61
2022-11-26T03:09:07.453Z,14.61
2022-11-26T03:09:39.253Z,14.50
2022-11-26T03:10:02.833Z,14.60
2022-11-26T03:10:26.050Z,14.59
2022-11-26T03:10:47.679Z,14.61
2022-11-26T03:11:09.395Z,14.57
2022-11-26T03:11:32.050Z,14.55
2022-11-26T03:11:53.821Z,14.50
2022-11-26T03:12:15.532Z,14.49
2022-11-26T03:12:37.169Z,14.50
2022-11-26T03:13:00.180Z,14.48
2022-11-26T03:13:21.804Z,14.47
2022-11-26T03:13:43.441Z,14.46
2022-11-26T03:14:05.043Z,14.45
2022-11-26T03:14:27.678Z,14.47
2022-11-26T03:14:49.271Z,14.48
2022-11-26T03:15:11.570Z,14.44
2022-11-26T03:15:34.553Z,14.38
2022-11-26T03:15:57.220Z,14.48
2022-11-26T03:16:19.145Z,14.44
2022-11-26T03:16:40.847Z,14.37
2022-11-26T03:17:02.461Z,14.42
2022-11-26T03:17:25.096Z,14.43
2022-11-26T03:17:47.329Z,14.41
2022-11-26T03:18:09.008Z,14.44
2022-11-26T03:18:31.158Z,14.45
2022-11-26T03:18:53.802Z,14.39
2022-11-26T03:19:15.508Z,14.37
2022-11-26T03:19:37.125Z,14.39
2022-11-26T03:19:58.816Z,14.48
2022-11-26T03:20:21.399Z,14.47
2022-11-26T03:20:43.433Z,14.38
2022-11-26T03:21:05.413Z,14.48
2022-11-26T03:21:27.172Z,14.48
2022-11-26T03:21:48.759Z,14.48
2022-11-26T03:22:12.270Z,14.50
2022-11-26T03:22:34.174Z,14.53
2022-11-26T03:22:57.038Z,14.42
2022-11-26T03:23:19.107Z,14.50
2022-11-26T03:23:41.992Z,14.50
2022-11-26T03:24:03.959Z,14.51
2022-11-26T03:24:25.588Z,14.40
2022-11-26T03:24:47.369Z,14.54
2022-11-26T03:25:10.783Z,14.55
2022-11-26T03:25:33.136Z,14.55
2022-11-26T03:25:54.754Z,14.54
2022-11-26T03:26:17.658Z,14.54
2022-11-26T03:26:40.338Z,14.53
2022-11-26T03:27:01.974Z,14.52
2022-11-26T03:27:23.523Z,14.56
2022-11-26T03:27:45.360Z,14.57
2022-11-26T03:28:08.239Z,14.56
2022-11-26T03:28:30.175Z,14.52
2022-11-26T03:28:52.014Z,14.52
2022-11-26T04:11:06.965Z,14.09
2022-11-26T04:11:28.697Z,14.04
2022-11-26T04:11:50.362Z,13.96
2022-11-26T04:12:11.966Z,13.98
2022-11-26T04:12:34.526Z,14.00
2022-11-26T04:12:56.205Z,14.00
2022-11-26T04:13:17.793Z,14.02
2022-11-26T04:13:39.359Z,13.98
2022-11-26T04:14:02.218Z,14.01
2022-11-26T04:14:23.987Z,13.94
2022-11-26T04:14:45.697Z,13.84
2022-11-26T04:15:08.568Z,13.82
2022-11-26T04:15:31.222Z,13.87
2022-11-26T04:15:52.840Z,13.90
2022-11-26T04:16:14.587Z,13.93
2022-11-26T04:16:36.590Z,13.98
2022-11-26T04:16:59.323Z,14.00
2022-11-26T04:17:20.965Z,14.04
2022-11-26T04:17:42.557Z,14.00
2022-11-26T04:18:04.356Z,14.03
2022-11-26T04:18:26.971Z,14.01
2022-11-26T04:18:48.532Z,14.04
2022-11-26T04:19:10.245Z,14.05
2022-11-26T04:19:32.039Z,14.07
2022-11-26T04:19:54.676Z,14.08
2022-11-26T04:20:16.582Z,14.08
2022-11-26T04:20:38.225Z,14.08
2022-11-26T04:21:00.187Z,14.02
2022-11-26T04:21:21.787Z,14.11
2022-11-26T04:21:45.454Z,14.11
2022-11-26T04:22:07.063Z,14.14
2022-11-26T04:22:28.614Z,14.12
2022-11-26T04:22:50.244Z,14.16
2022-11-26T04:23:12.900Z,14.17
2022-11-26T04:23:35.266Z,14.19
2022-11-26T04:23:56.998Z,14.19
2022-11-26T04:24:18.863Z,14.18
2022-11-26T04:24:41.544Z,14.21
2022-11-26T04:25:05.132Z,14.24
2022-11-26T04:25:26.732Z,14.23
2022-11-26T04:25:48.400Z,14.21
2022-11-26T04:26:12.385Z,14.20
2022-11-26T04:26:34.126Z,14.21
2022-11-26T04:26:55.816Z,14.26
2022-11-26T04:27:17.401Z,14.27
2022-11-26T04:27:39.990Z,14.23
2022-11-26T04:28:01.750Z,14.31
2022-11-26T04:28:23.333Z,14.31
2022-11-26T04:28:45.188Z,14.19
2022-11-26T04:29:07.930Z,14.31
2022-11-26T04:29:29.710Z,14.36
2022-11-26T04:29:51.569Z,14.36
2022-11-26T04:30:14.872Z,14.35
2022-11-26T04:30:36.504Z,14.37
2022-11-26T04:30:59.270Z,14.36
2022-11-26T04:42:26.380Z,14.06
2022-11-26T04:42:49.327Z,14.08
2022-11-26T04:43:10.975Z,14.09
2022-11-26T04:43:32.655Z,14.01
2022-11-26T04:43:55.244Z,14.04
2022-11-26T04:44:16.836Z,13.97
2022-11-26T04:44:38.671Z,14.04
2022-11-26T04:45:00.447Z,14.03
2022-11-26T04:45:23.033Z,14.03
2022-11-26T04:45:44.732Z,14.04
2022-11-26T04:46:06.654Z,14.04
2022-11-26T04:46:28.350Z,14.07
2022-11-26T04:46:50.920Z,14.09
2022-11-26T04:47:12.467Z,14.11
2022-11-26T04:47:35.002Z,14.14
2022-11-26T04:47:59.069Z,14.13
2022-11-26T04:48:21.792Z,14.14
2022-11-26T04:48:43.392Z,14.17
2022-11-26T04:49:05.039Z,14.15
2022-11-26T04:49:26.637Z,14.14
2022-11-26T04:49:48.255Z,14.13
2022-11-26T04:50:11.906Z,14.12
2022-11-26T04:50:33.679Z,14.08
2022-11-26T04:50:55.262Z,14.15
2022-11-26T04:51:16.837Z,14.14
2022-11-26T04:51:39.400Z,14.14
2022-11-26T04:52:01.040Z,14.14
2022-11-26T04:52:22.760Z,14.05
2022-11-26T04:52:44.496Z,14.13
2022-11-26T04:53:06.909Z,14.07
2022-11-26T04:53:29.502Z,14.15
2022-11-26T04:53:55.475Z,14.16
2022-11-26T04:54:17.444Z,14.07
2022-11-26T04:54:39.373Z,14.14
2022-11-26T04:55:02.238Z,14.15
2022-11-26T04:55:23.850Z,14.14
2022-11-26T04:55:45.433Z,14.12
2022-11-26T04:56:08.434Z,14.13
2022-11-26T04:56:30.053Z,14.15
2022-11-26T04:56:51.656Z,14.14
2022-11-26T04:57:14.406Z,14.16
2022-11-26T04:57:36.049Z,14.14
2022-11-26T04:58:00.285Z,14.15
2022-11-26T04:58:22.294Z,14.03
2022-11-26T04:58:44.155Z,14.08
2022-11-26T04:59:06.766Z,14.09
2022-11-26T04:59:28.482Z,14.07
2022-11-26T04:59:50.133Z,14.08
2022-11-26T05:00:12.982Z,14.01
2022-11-26T05:00:36.015Z,14.13
2022-11-26T05:00:57.772Z,14.14
2022-11-26T05:01:19.489Z,14.06
2022-11-26T05:01:41.172Z,14.20
2022-11-26T05:02:03.769Z,14.20
2022-11-26T05:02:25.519Z,14.18
2022-11-26T05:02:47.195Z,14.17
2022-11-26T05:03:08.960Z,14.16
2022-11-26T05:03:31.583Z,14.14
2022-11-26T05:03:53.240Z,14.11
2022-11-26T05:04:14.841Z,14.10
2022-11-26T05:04:37.869Z,14.12
2022-11-26T05:05:00.000Z,14.15
2022-11-26T05:05:21.606Z,14.15
2022-11-26T05:05:43.316Z,14.12
2022-11-26T05:06:06.474Z,14.08
2022-11-26T05:06:28.065Z,14.10
2022-11-26T05:06:49.721Z,14.07
2022-11-26T05:07:11.451Z,14.02
2022-11-26T05:07:33.778Z,14.09
2022-11-26T05:07:56.443Z,14.08
2022-11-26T05:08:18.098Z,14.07
2022-11-26T05:08:39.806Z,14.07
2022-11-26T05:09:01.371Z,14.08
2022-11-26T05:09:22.970Z,14.08
2022-11-26T05:09:46.830Z,14.05
2022-11-26T05:10:10.506Z,14.03
2022-11-26T05:10:32.127Z,14.09
2022-11-26T05:10:55.305Z,14.12
2022-11-26T05:11:17.271Z,14.11
2022-11-26T05:11:38.881Z,14.12
2022-11-26T05:12:00.473Z,14.11
2022-11-26T05:12:22.992Z,14.10
2022-11-26T05:12:44.562Z,14.12
2022-11-26T05:13:07.490Z,14.09
2022-11-26T05:13:29.507Z,14.11
2022-11-26T05:13:51.569Z,14.11
2022-11-26T05:14:14.137Z,14.12
2022-11-26T05:14:36.034Z,14.08
2022-11-26T05:14:57.980Z,14.13
2022-11-26T05:15:19.635Z,14.13
2022-11-26T05:15:42.234Z,14.10
2022-11-26T05:16:04.231Z,14.10
2022-11-26T05:16:25.915Z,14.12
2022-11-26T05:16:47.666Z,14.11
2022-11-26T05:17:09.278Z,14.09
2022-11-26T05:17:31.961Z,14.08
2022-11-26T05:17:53.630Z,14.07
2022-11-26T05:18:15.231Z,14.07
2022-11-26T05:18:36.786Z,14.05
2022-11-26T05:18:59.474Z,14.04
2022-11-26T05:19:21.209Z,13.87
2022-11-26T05:19:42.915Z,14.05
2022-11-26T05:20:06.043Z,13.96
2022-11-26T05:20:28.646Z,14.06
2022-11-26T05:20:50.191Z,13.99
2022-11-26T05:21:11.799Z,14.03
2022-11-26T05:21:33.509Z,14.05
2022-11-26T05:21:56.106Z,14.02
2022-11-26T05:22:17.767Z,14.02
2022-11-26T05:22:39.382Z,14.05
2022-11-26T05:23:00.996Z,14.05
2022-11-26T05:33:47.756Z,13.87
2022-11-26T05:34:09.538Z,13.84
2022-11-26T05:34:31.408Z,13.84
2022-11-26T05:34:55.693Z,13.83
2022-11-26T05:35:22.686Z,13.82
2022-11-26T05:35:44.320Z,13.79
2022-11-26T05:36:06.423Z,13.83
2022-11-26T05:36:28.071Z,13.85
2022-11-26T05:36:50.910Z,13.77
2022-11-26T05:37:12.549Z,13.83
2022-11-26T05:37:34.256Z,13.86
2022-11-26T05:37:56.160Z,13.86
2022-11-26T05:38:18.831Z,13.81
2022-11-26T05:38:40.424Z,13.88
2022-11-26T05:39:02.132Z,13.88
2022-11-26T05:39:23.775Z,13.88
2022-11-26T05:39:46.365Z,13.89
2022-11-26T05:40:09.687Z,13.92
2022-11-26T05:40:31.291Z,13.94
2022-11-26T05:40:52.943Z,13.82
2022-11-26T05:41:16.634Z,13.94
2022-11-26T05:41:38.596Z,13.87
2022-11-26T05:42:03.590Z,13.92
2022-11-26T05:42:27.915Z,13.92
2022-11-26T05:42:50.587Z,13.92
2022-11-26T05:43:13.093Z,13.81
2022-11-26T05:43:34.703Z,13.94
2022-11-26T05:43:56.342Z,13.93
2022-11-26T05:44:18.186Z,13.96
2022-11-26T05:44:41.125Z,13.92
2022-11-26T05:45:04.033Z,13.86
2022-11-26T05:45:25.730Z,13.90
2022-11-26T05:45:47.425Z,13.88
2022-11-26T05:46:10.465Z,13.93
2022-11-26T05:46:32.446Z,13.93
2022-11-26T05:46:54.012Z,13.92
2022-11-26T05:47:15.756Z,13.90
2022-11-26T05:47:37.435Z,13.87
2022-11-26T05:48:00.031Z,13.86
2022-11-26T05:48:21.729Z,13.88
2022-11-26T05:48:43.725Z,13.76
2022-11-26T05:49:06.769Z,13.84
2022-11-26T05:49:29.360Z,13.84
2022-11-26T05:49:51.026Z,13.86
2022-11-26T05:50:14.861Z,13.88
2022-11-26T05:50:37.762Z,13.85
2022-11-26T05:50:59.639Z,13.87
2022-11-26T05:51:21.657Z,13.87
2022-11-26T05:51:43.287Z,13.89
2022-11-26T05:52:05.270Z,13.93
2022-11-26T05:52:26.877Z,13.93
2022-11-26T05:52:49.617Z,13.92
2022-11-26T05:53:11.238Z,13.83
2022-11-26T05:53:33.159Z,13.90
2022-11-26T05:53:54.760Z,13.95
2022-11-26T05:54:17.812Z,13.95
2022-11-26T05:54:39.695Z,13.96
2022-11-26T05:55:01.702Z,13.96
2022-11-26T05:55:23.291Z,13.98
2022-11-26T05:55:45.962Z,13.96
2022-11-26T05:56:08.402Z,13.89
2022-11-26T05:56:30.122Z,13.90
2022-11-26T05:56:56.917Z,13.86
2022-11-26T05:57:22.414Z,13.70
2022-11-26T05:57:44.195Z,13.87
2022-11-26T05:58:05.827Z,13.81
2022-11-26T05:58:27.547Z,13.78
2022-11-26T05:58:49.143Z,13.83
2022-11-26T05:59:12.077Z,13.87
2022-11-26T05:59:33.760Z,13.85
2022-11-26T05:59:55.403Z,13.85
2022-11-26T06:00:17.237Z,13.86
2022-11-26T06:00:39.785Z,13.73
2022-11-26T06:01:01.593Z,13.83
2022-11-26T06:01:23.270Z,13.77
2022-11-26T06:01:44.895Z,13.80
2022-11-26T06:02:07.580Z,13.80
2022-11-26T06:02:29.313Z,13.74
2022-11-26T06:02:51.128Z,13.80
2022-11-26T06:03:17.063Z,13.82
2022-11-26T06:03:42.573Z,13.82
2022-11-26T06:04:06.154Z,13.82
2022-11-26T06:04:27.847Z,13.81
2022-11-26T06:04:49.521Z,13.73
2022-11-26T06:05:12.652Z,13.77
2022-11-26T06:05:34.244Z,13.80
2022-11-26T06:05:55.867Z,13.82
2022-11-26T06:06:17.569Z,13.82
2022-11-26T06:06:40.192Z,13.63
2022-11-26T06:07:01.912Z,13.86
2022-11-26T06:07:23.683Z,13.88
2022-11-26T06:07:45.410Z,13.89
2022-11-26T06:08:08.104Z,13.86
2022-11-26T06:08:29.876Z,13.89
2022-11-26T06:08:51.683Z,13.89
2022-11-26T06:09:13.797Z,13.88
2022-11-26T06:09:36.750Z,13.90
2022-11-26T06:09:58.709Z,13.88
2022-11-26T06:10:20.540Z,13.85
2022-11-26T06:10:42.323Z,13.87
2022-11-26T06:11:05.013Z,13.84
2022-11-26T06:11:26.725Z,13.87
2022-11-26T06:11:49.144Z,13.85
2022-11-26T06:12:12.111Z,13.87
2022-11-26T06:12:35.043Z,13.77
2022-11-26T06:12:56.928Z,13.82
2022-11-26T06:13:18.539Z,13.82
2022-11-26T06:13:40.429Z,13.84
2022-11-26T06:14:02.978Z,13.76
2022-11-26T06:14:24.833Z,13.80
2022-11-26T06:14:46.889Z,13.79
2022-11-26T06:15:11.299Z,13.76
2022-11-26T06:15:32.897Z,13.75
2022-11-26T06:15:54.538Z,13.67
2022-11-26T06:16:16.385Z,13.73
2022-11-26T06:16:39.092Z,13.66
2022-11-26T06:17:00.801Z,13.71
2022-11-26T06:17:22.688Z,13.73
2022-11-26T06:17:44.401Z,13.73
2022-11-26T06:18:07.105Z,13.72
2022-11-26T06:18:28.718Z,13.71
2022-11-26T06:18:50.333Z,13.74
2022-11-26T06:19:13.709Z,13.73
2022-11-26T06:19:36.299Z,13.79
2022-11-26T06:19:57.928Z,13.79
2022-11-26T06:20:19.587Z,13.78
2022-11-26T06:20:41.158Z,13.76
2022-11-26T06:21:05.246Z,13.73
2022-11-26T06:21:26.830Z,13.72
2022-11-26T06:21:48.498Z,13.61
2022-11-26T06:22:10.397Z,13.73
2022-11-26T06:22:37.352Z,13.74
2022-11-26T06:22:59.045Z,13.75
2022-11-26T06:23:20.658Z,13.77
2022-11-26T06:23:49.635Z,13.79
2022-11-26T06:24:15.616Z,13.78
2022-11-26T06:24:37.892Z,13.76
2022-11-26T06:24:59.681Z,13.74
2022-11-26T06:25:21.335Z,13.58
2022-11-26T06:25:44.045Z,13.73
2022-11-26T06:26:09.153Z,13.75
2022-11-26T06:26:30.867Z,13.72
2022-11-26T06:26:52.671Z,13.72
2022-11-26T06:27:15.310Z,13.71
2022-11-26T06:27:37.193Z,13.72
2022-11-26T06:27:58.791Z,13.71
2022-11-26T06:28:20.633Z,13.74
2022-11-26T06:28:43.276Z,13.74
2022-11-26T06:29:05.320Z,13.68
2022-11-26T06:29:28.347Z,13.74
2022-11-26T06:29:51.431Z,13.74
2022-11-26T06:30:14.050Z,13.73
2022-11-26T06:30:35.713Z,13.77
2022-11-26T06:30:57.351Z,13.79
2022-11-26T06:31:19.953Z,13.75
2022-11-26T06:31:41.679Z,13.70
2022-11-26T06:32:03.546Z,13.65
2022-11-26T06:32:25.201Z,13.67
2022-11-26T06:32:48.218Z,13.68
2022-11-26T06:33:09.811Z,13.54
2022-11-26T06:33:31.946Z,13.67
2022-11-26T06:33:54.351Z,13.60
2022-11-26T06:34:18.673Z,13.65
2022-11-26T06:34:42.571Z,13.66
2022-11-26T06:35:06.462Z,13.68
2022-11-26T06:35:28.949Z,13.70
2022-11-26T06:35:51.860Z,13.66
2022-11-26T06:36:14.129Z,13.67
2022-11-26T06:36:35.713Z,13.70
2022-11-26T06:36:57.278Z,13.68
2022-11-26T06:37:18.822Z,13.69
2022-11-26T06:37:41.842Z,13.67
2022-11-26T06:38:03.703Z,13.62
2022-11-26T06:38:25.398Z,13.61
2022-11-26T06:38:48.005Z,13.63
2022-11-26T06:39:09.983Z,13.65
2022-11-26T06:39:31.592Z,13.63
2022-11-26T06:39:54.152Z,13.68
2022-11-26T06:40:18.008Z,13.67
2022-11-26T06:40:39.661Z,13.68
2022-11-26T06:41:02.729Z,13.68